Time;durP1;ratioP1;P1;durP2;ratioP2;P2;SDS_P1;SDS_P2;PMS_P1;PMS_P2;Temp;Humidity;BMP_temperature;BMP_pressure;BME280_temperature;BME280_humidity;BME280_pressure;Samples;Min_cycle;Max_cycle;Signal;HPM_P1;HPM_P2
2021/07/31 00:00:58;;;;;;;;;;;16.70;99.90;;;15.47;66.77;100324.84;3540415;39;102439;-41
2021/07/31 00:03:26;;;;;;;;;;;16.70;99.90;;;15.55;66.55;100320.00;3540356;39;102315;-41
2021/07/31 00:05:53;;;;;;;;;;;16.70;99.90;;;15.55;65.84;100328.22;3540522;39;102135;-41
2021/07/31 00:08:21;;;;;;;;;;;16.70;99.90;;;15.53;66.65;100328.47;3540199;39;102229;-41
2021/07/31 00:10:48;;;;;;;;;;;16.70;99.90;;;15.53;66.12;100326.56;3540438;39;102297;-41
2021/07/31 00:13:16;;;;;;;;;;;16.70;99.90;;;15.58;66.72;100325.78;3540094;39;102289;-41
2021/07/31 00:15:43;;;;;;;;;;;16.70;99.90;;;15.59;66.14;100329.38;3539931;39;102204;-42
2021/07/31 00:18:10;;;;;;;;;;;16.80;99.90;;;15.62;66.17;100326.09;3540455;39;103199;-42
2021/07/31 00:20:38;;;;;;;;;;;16.80;99.90;;;15.59;67.21;100330.19;3540627;39;102252;-41
2021/07/31 00:23:06;;;;;;;;;;;16.80;99.90;;;15.57;67.27;100324.13;3540481;39;102375;-41
2021/07/31 00:25:33;;;;;;;;;;;16.80;99.90;;;15.65;67.74;100325.59;3540196;39;102138;-41
2021/07/31 00:28:00;;;;;;;;;;;16.80;99.90;;;15.73;66.83;100322.38;3540644;39;103220;-41
2021/07/31 00:30:28;;;;;;;;;;;16.90;99.90;;;15.71;66.74;100319.03;3540638;39;102424;-41
2021/07/31 00:32:56;;;;;;;;;;;16.90;99.90;;;15.78;65.64;100316.09;3539906;39;104002;-41
2021/07/31 00:35:24;;;;;;;;;;;16.90;99.90;;;15.80;65.59;100314.75;3540193;39;102395;-41
2021/07/31 00:37:52;;;;;;;;;;;16.90;99.90;;;15.76;66.78;100315.53;3540402;39;103345;-42
2021/07/31 00:40:19;;;;;;;;;;;16.90;99.90;;;15.86;65.38;100320.28;3540234;39;102274;-41
2021/07/31 00:42:46;;;;;;;;;;;17.00;99.90;;;15.84;66.99;100316.97;3540437;39;103254;-41
2021/07/31 00:45:14;;;;;;;;;;;17.00;99.90;;;15.80;66.66;100313.91;3540346;39;102338;-41
2021/07/31 00:47:43;;;;;;;;;;;17.00;99.90;;;15.89;65.95;100320.63;3540320;39;104400;-41
2021/07/31 00:50:12;;;;;;;;;;;17.00;99.90;;;15.86;66.35;100314.81;3539053;39;102798;-41
2021/07/31 00:52:41;;;;;;;;;;;17.00;99.90;;;15.84;66.92;100320.53;3540217;39;102229;-40
2021/07/31 00:55:13;;;;;;;;;;;17.00;99.90;;;15.91;66.44;100314.88;3539941;39;102204;-41
2021/07/31 00:57:41;;;;;;;;;;;17.00;99.90;;;15.96;67.67;100324.00;3540431;39;102078;-40
2021/07/31 01:00:20;;;;;;;;;;;17.10;99.90;;;15.89;67.64;100325.31;3539088;39;104143;-41
2021/07/31 01:02:48;;;;;;;;;;;17.10;99.90;;;15.91;67.70;100318.47;3540550;39;102920;-41
2021/07/31 01:05:16;;;;;;;;;;;17.10;99.90;;;15.89;66.89;100301.38;3539879;39;102160;-43
2021/07/31 01:07:43;;;;;;;;;;;17.10;99.90;;;15.93;66.55;100312.69;3540318;39;103018;-41
2021/07/31 01:10:12;;;;;;;;;;;17.10;99.90;;;15.87;66.71;100313.72;3540035;39;102142;-41
2021/07/31 01:12:42;;;;;;;;;;;17.10;99.90;;;15.93;66.72;100320.94;3539866;39;103131;-41
2021/07/31 01:15:10;;;;;;;;;;;17.10;99.90;;;15.95;66.90;100316.00;3538752;39;102577;-41
2021/07/31 01:17:37;;;;;;;;;;;17.10;99.90;;;15.88;66.64;100313.47;3538911;39;103304;-40
2021/07/31 01:20:05;;;;;;;;;;;17.10;99.90;;;15.81;67.80;100312.81;3540181;39;102360;-41
2021/07/31 01:22:33;;;;;;;;;;;17.00;99.90;;;15.87;66.94;100322.78;3539842;39;102272;-41
2021/07/31 01:25:08;;;;;;;;;;;17.10;99.90;;;15.79;68.18;100320.50;3539580;39;102434;-41
2021/07/31 01:27:39;;;;;;;;;;;17.00;99.90;;;15.75;69.22;100313.88;3530601;39;103133;-41
2021/07/31 01:30:08;;;;;;;;;;;17.00;99.90;;;15.73;67.97;100316.03;3539530;39;103022;-41
2021/07/31 01:32:36;;;;;;;;;;;16.90;99.90;;;15.67;69.08;100318.75;3540064;39;102292;-41
2021/07/31 01:35:04;;;;;;;;;;;16.90;99.90;;;15.71;68.45;100323.72;3530638;39;102432;-40
2021/07/31 01:37:34;;;;;;;;;;;16.90;99.90;;;15.82;67.72;100325.47;3539963;39;102223;-41
2021/07/31 01:40:03;;;;;;;;;;;16.90;99.90;;;15.83;68.23;100321.63;3539849;39;102465;-41
2021/07/31 01:42:31;;;;;;;;;;;17.00;99.90;;;15.83;68.15;100327.13;3540235;39;103234;-41
2021/07/31 01:44:58;;;;;;;;;;;17.00;99.90;;;15.92;67.61;100327.53;3539936;39;102360;-41
2021/07/31 01:47:26;;;;;;;;;;;17.00;99.90;;;15.90;68.58;100321.47;3541152;39;102399;-40
2021/07/31 01:49:57;;;;;;;;;;;17.10;99.90;;;15.90;68.47;100319.53;3540112;39;102466;-40
2021/07/31 01:52:25;;;;;;;;;;;17.10;99.90;;;15.85;67.76;100318.63;3539892;39;104280;-41
2021/07/31 01:54:53;;;;;;;;;;;17.10;99.90;;;15.88;68.44;100327.22;3539764;39;103012;-40
2021/07/31 01:57:20;;;;;;;;;;;17.00;99.90;;;15.90;67.73;100330.53;3541169;39;104851;-41
2021/07/31 02:00:17;;;;;;;;;;;17.00;99.90;;;15.91;68.47;100323.97;3521419;39;102759;-41
2021/07/31 02:03:02;;;;;;;;;;;17.10;99.90;;;15.95;68.67;100314.09;3540695;39;102386;-39
2021/07/31 02:05:36;;;;;;;;;;;17.10;99.90;;;15.90;68.57;100314.03;3639655;23;102967;-39
2021/07/31 02:08:04;;;;;;;;;;;17.10;99.90;;;15.92;67.81;100320.13;3500014;39;103391;-39
2021/07/31 02:10:46;;;;;;;;;;;17.10;99.90;;;15.93;67.45;100321.78;3498301;40;102501;-39
2021/07/31 02:13:14;;;;;;;;;;;17.10;99.90;;;15.88;68.72;100324.47;3498658;40;103098;-39
2021/07/31 02:15:45;;;;;;;;;;;17.10;99.90;;;15.80;68.88;100316.66;3496647;39;102605;-39
2021/07/31 02:18:18;;;;;;;;;;;17.00;99.90;;;15.74;68.97;100317.72;3489719;40;104248;-39
2021/07/31 02:20:46;;;;;;;;;;;17.00;99.90;;;15.59;68.89;100310.94;3489802;39;103734;-39
2021/07/31 02:23:32;;;;;;;;;;;16.90;99.90;;;15.56;68.84;100313.41;3488806;39;103316;-39
2021/07/31 02:26:25;;;;;;;;;;;16.80;99.90;;;15.67;68.83;100309.66;3488626;39;102503;-39
2021/07/31 02:28:59;;;;;;;;;;;16.80;99.90;;;15.68;68.98;100303.91;3488565;40;105332;-39
2021/07/31 02:31:30;;;;;;;;;;;16.90;99.90;;;15.62;68.93;100320.59;3496850;40;102870;-39
2021/07/31 02:33:58;;;;;;;;;;;16.80;99.90;;;15.59;68.81;100305.44;3489492;39;104025;-39
2021/07/31 02:36:28;;;;;;;;;;;16.80;99.90;;;15.60;68.33;100311.78;3497154;40;103955;-39
2021/07/31 02:39:18;;;;;;;;;;;16.80;99.90;;;15.56;68.74;100305.97;3489150;40;104200;-39
2021/07/31 02:41:46;;;;;;;;;;;16.80;99.90;;;15.60;69.13;100309.03;3496984;40;103641;-39
2021/07/31 02:44:14;;;;;;;;;;;16.70;99.90;;;15.56;68.73;100313.41;3496534;39;104220;-39
2021/07/31 02:46:42;;;;;;;;;;;16.70;99.90;;;15.65;68.89;100298.09;3488539;39;103771;-39
2021/07/31 02:49:10;;;;;;;;;;;16.80;99.90;;;15.59;69.18;100307.38;3489847;40;103888;-39
2021/07/31 02:51:38;;;;;;;;;;;16.80;99.90;;;15.65;69.19;100309.09;3488411;39;102981;-40
2021/07/31 02:54:18;;;;;;;;;;;16.80;99.90;;;15.66;68.67;100302.50;3489625;39;102273;-39
2021/07/31 02:56:45;;;;;;;;;;;16.80;99.90;;;15.68;68.98;100298.41;3489681;39;102309;-39
2021/07/31 02:59:17;;;;;;;;;;;16.80;99.90;;;15.68;68.68;100298.41;3490135;39;103245;-39
2021/07/31 03:01:45;;;;;;;;;;;16.80;99.90;;;15.72;68.66;100295.13;3496782;40;103501;-39
2021/07/31 03:04:14;;;;;;;;;;;16.90;99.90;;;15.76;67.51;100299.84;3496551;40;104963;-39
2021/07/31 03:06:43;;;;;;;;;;;16.90;99.90;;;15.74;68.03;100281.97;3489579;40;102946;-39
2021/07/31 03:09:13;;;;;;;;;;;16.90;99.90;;;15.72;68.04;100275.88;3489655;39;104053;-39
2021/07/31 03:11:41;;;;;;;;;;;16.90;99.90;;;15.77;68.28;100295.19;3489560;39;102845;-39
2021/07/31 03:14:08;;;;;;;;;;;17.00;99.90;;;15.74;68.06;100290.22;3489590;39;103924;-39
2021/07/31 03:16:39;;;;;;;;;;;16.90;99.90;;;15.78;68.05;100272.94;3489297;40;102808;-39
2021/07/31 03:19:06;;;;;;;;;;;16.90;99.90;;;15.77;68.34;100279.50;3489614;39;104035;-39
2021/07/31 03:21:36;;;;;;;;;;;16.90;99.90;;;15.79;67.68;100268.25;3489621;40;102776;-39
2021/07/31 03:24:17;;;;;;;;;;;16.90;99.90;;;15.72;69.41;100278.63;3489102;39;103073;-39
2021/07/31 03:26:45;;;;;;;;;;;16.90;99.90;;;15.74;68.45;100280.03;3488517;40;102321;-39
2021/07/31 03:29:20;;;;;;;;;;;16.90;99.90;;;15.68;68.14;100265.41;3496705;39;104196;-39
2021/07/31 03:31:51;;;;;;;;;;;16.90;99.90;;;15.72;67.57;100275.88;3489363;40;102148;-39
2021/07/31 03:34:21;;;;;;;;;;;16.90;99.90;;;15.72;67.68;100279.44;3489213;40;103107;-39
2021/07/31 03:36:52;;;;;;;;;;;16.90;99.90;;;15.67;69.09;100291.25;3489644;40;102184;-39
2021/07/31 03:39:22;;;;;;;;;;;16.90;99.90;;;15.63;68.70;100281.84;3489822;39;104070;-39
2021/07/31 03:41:50;;;;;;;;;;;16.80;99.90;;;15.66;67.91;100281.34;3489350;40;102266;-39
2021/07/31 03:44:18;;;;;;;;;;;16.80;99.90;;;15.65;68.99;100284.34;3489006;39;104089;-39
2021/07/31 03:46:48;;;;;;;;;;;16.80;99.90;;;15.57;69.65;100288.38;3489334;39;102438;-39
2021/07/31 03:49:22;;;;;;;;;;;16.80;99.90;;;15.52;69.32;100282.84;3489698;40;103122;-39
2021/07/31 03:51:54;;;;;;;;;;;16.70;99.90;;;15.46;69.62;100283.88;3488077;39;103564;-40
2021/07/31 03:54:23;;;;;;;;;;;16.70;99.90;;;15.49;69.50;100283.34;3489260;40;104095;-39
2021/07/31 03:56:51;;;;;;;;;;;16.70;99.90;;;15.40;69.88;100291.22;3489174;40;102402;-39
2021/07/31 03:59:30;;;;;;;;;;;16.60;99.90;;;15.36;69.87;100290.09;3496662;39;104325;-39
2021/07/31 04:01:59;;;;;;;;;;;16.60;99.90;;;15.30;70.15;100291.94;3496272;40;103716;-39
2021/07/31 04:04:27;;;;;;;;;;;16.60;99.90;;;15.21;70.98;100294.31;3496158;39;105004;-39
2021/07/31 04:06:58;;;;;;;;;;;16.50;99.90;;;15.11;70.64;100283.22;3489273;39;102797;-39
2021/07/31 04:09:44;;;;;;;;;;;16.40;99.90;;;15.14;70.77;100290.13;3489377;39;102803;-39
2021/07/31 04:12:31;;;;;;;;;;;16.40;99.90;;;15.05;71.71;100301.53;3489507;40;102350;-39
2021/07/31 04:15:24;;;;;;;;;;;16.30;99.90;;;15.05;71.23;100315.25;3500543;39;102296;-39
2021/07/31 04:17:52;;;;;;;;;;;16.30;99.90;;;15.02;72.11;100310.28;3489314;39;102175;-39
2021/07/31 04:20:20;;;;;;;;;;;16.30;99.90;;;15.04;71.95;100321.84;3496194;39;105916;-39
2021/07/31 04:22:49;;;;;;;;;;;16.20;99.90;;;15.06;72.28;100321.59;3487962;39;102824;-39
2021/07/31 04:25:19;;;;;;;;;;;16.20;99.90;;;15.03;72.61;100314.69;3495715;40;104445;-39
2021/07/31 04:27:47;;;;;;;;;;;16.20;99.90;;;15.09;72.66;100321.91;3489022;40;102363;-39
2021/07/31 04:30:14;;;;;;;;;;;16.30;99.90;;;15.10;72.95;100326.31;3489781;40;103228;-39
2021/07/31 04:32:41;;;;;;;;;;;16.30;99.90;;;15.22;71.73;100325.38;3489506;40;102204;-39
2021/07/31 04:35:10;;;;;;;;;;;16.40;99.90;;;15.23;71.91;100329.78;3489167;40;103556;-39
2021/07/31 04:37:37;;;;;;;;;;;16.40;99.90;;;15.27;72.16;100317.19;3489082;40;102212;-39
2021/07/31 04:40:06;;;;;;;;;;;16.40;99.90;;;15.22;72.17;100315.19;3489005;39;103007;-39
2021/07/31 04:42:33;;;;;;;;;;;16.40;99.90;;;15.31;71.63;100312.84;3489059;39;102818;-39
2021/07/31 04:45:00;;;;;;;;;;;16.50;99.90;;;15.34;71.29;100326.06;3489057;40;103887;-39
2021/07/31 04:47:27;;;;;;;;;;;16.50;99.90;;;15.34;72.11;100319.75;3489052;39;102395;-39
2021/07/31 04:49:54;;;;;;;;;;;16.50;99.90;;;15.34;72.05;100328.81;3489248;40;103201;-39
2021/07/31 04:52:22;;;;;;;;;;;16.50;99.90;;;15.29;72.53;100320.50;3488880;39;102494;-39
2021/07/31 04:54:49;;;;;;;;;;;16.50;99.90;;;15.34;72.12;100339.81;3488644;39;103046;-40
2021/07/31 04:57:17;;;;;;;;;;;16.50;99.90;;;15.40;72.46;100340.69;3489285;39;102777;-39
2021/07/31 04:59:44;;;;;;;;;;;16.60;99.90;;;15.39;71.91;100348.13;3489176;40;103136;-39
2021/07/31 05:02:11;;;;;;;;;;;16.60;99.90;;;15.35;73.27;100344.22;3489185;40;102345;-39
2021/07/31 05:04:38;;;;;;;;;;;16.50;99.90;;;15.34;72.41;100339.81;3488754;39;103913;-39
2021/07/31 05:07:07;;;;;;;;;;;16.60;99.90;;;15.35;72.41;100343.41;3489041;40;102145;-39
2021/07/31 05:09:35;;;;;;;;;;;16.50;99.90;;;15.34;72.55;100345.28;3488504;39;104145;-39
2021/07/31 05:12:02;;;;;;;;;;;16.50;99.90;;;15.32;73.26;100343.91;3489167;40;102380;-39
2021/07/31 05:14:30;;;;;;;;;;;16.50;99.90;;;15.39;73.09;100342.63;3488495;39;104109;-38
2021/07/31 05:16:57;;;;;;;;;;;16.50;99.90;;;15.42;72.99;100344.03;3488877;39;103126;-39
2021/07/31 05:19:24;;;;;;;;;;;16.60;99.90;;;15.53;72.53;100344.97;3489303;40;103159;-39
2021/07/31 05:21:55;;;;;;;;;;;16.60;99.90;;;15.51;72.71;100341.66;3488646;39;102813;-39
2021/07/31 05:24:22;;;;;;;;;;;16.70;99.90;;;15.53;71.61;100333.97;3488664;40;104012;-39
2021/07/31 05:26:49;;;;;;;;;;;16.70;99.90;;;15.58;72.31;100353.28;3488849;40;102830;-39
2021/07/31 05:29:16;;;;;;;;;;;16.70;99.90;;;15.61;72.21;100346.44;3488628;39;104063;-39
2021/07/31 05:31:44;;;;;;;;;;;16.80;99.90;;;15.53;72.25;100351.31;3488763;40;102702;-39
2021/07/31 05:34:11;;;;;;;;;;;16.70;99.90;;;15.55;71.87;100358.47;3488478;39;103369;-39
2021/07/31 05:36:39;;;;;;;;;;;16.70;99.90;;;15.63;72.04;100355.25;3488724;40;102913;-39
2021/07/31 05:39:07;;;;;;;;;;;16.80;99.90;;;15.62;72.46;100354.41;3488596;40;103101;-39
2021/07/31 05:41:34;;;;;;;;;;;16.80;99.90;;;15.59;71.48;100360.44;3488819;40;102440;-40
2021/07/31 05:44:01;;;;;;;;;;;16.80;99.90;;;15.60;72.43;100356.59;3488487;40;103215;-39
2021/07/31 05:46:29;;;;;;;;;;;16.80;99.90;;;15.68;71.33;100363.56;3488608;39;103254;-39
2021/07/31 05:48:56;;;;;;;;;;;16.80;99.90;;;15.69;72.82;100354.22;3488925;39;103146;-39
2021/07/31 05:51:23;;;;;;;;;;;16.80;99.90;;;15.70;71.43;100353.13;3488707;40;102841;-39
2021/07/31 05:53:50;;;;;;;;;;;16.90;99.90;;;15.71;71.07;100363.03;3488496;39;104199;-39
2021/07/31 05:56:18;;;;;;;;;;;16.90;99.90;;;15.79;70.73;100365.34;3488195;40;103031;-39
2021/07/31 05:58:45;;;;;;;;;;;16.90;99.90;;;15.81;71.45;100370.56;3488630;39;103088;-39
2021/07/31 06:01:13;;;;;;;;;;;16.90;99.90;;;15.84;70.90;100361.81;3488405;39;102819;-39
2021/07/31 06:03:40;;;;;;;;;;;17.00;99.90;;;15.86;71.42;100367.88;3488472;40;103931;-39
2021/07/31 06:06:08;;;;;;;;;;;17.00;99.90;;;15.90;71.31;100365.47;3488428;39;102919;-39
2021/07/31 06:08:35;;;;;;;;;;;17.00;99.90;;;15.95;70.58;100379.28;3488882;40;103145;-39
2021/07/31 06:11:04;;;;;;;;;;;17.10;99.90;;;15.94;71.59;100378.47;3488405;40;102859;-39
2021/07/31 06:13:33;;;;;;;;;;;17.10;99.90;;;16.01;70.68;100377.41;3488306;40;102161;-39
2021/07/31 06:16:00;;;;;;;;;;;17.10;99.90;;;16.09;70.17;100371.44;3488302;39;102937;-39
2021/07/31 06:18:27;;;;;;;;;;;17.20;99.90;;;16.07;70.77;100382.72;3488665;39;103920;-39
2021/07/31 06:20:55;;;;;;;;;;;17.20;99.90;;;16.02;69.72;100362.56;3488162;40;102973;-39
2021/07/31 06:23:22;;;;;;;;;;;17.20;99.90;;;16.16;70.23;100394.06;3488133;40;104399;-39
2021/07/31 06:25:49;;;;;;;;;;;17.30;99.90;;;16.16;69.86;100383.06;3494909;39;102486;-39
2021/07/31 06:28:16;;;;;;;;;;;17.30;99.90;;;16.15;69.73;100389.66;3488330;40;104007;-39
2021/07/31 06:30:44;;;;;;;;;;;17.30;99.90;;;16.09;70.89;100361.28;3488423;39;102790;-41
2021/07/31 06:33:12;;;;;;;;;;;17.30;99.90;;;16.30;70.05;100391.72;3489494;40;104142;-39
2021/07/31 06:35:40;;;;;;;;;;;17.40;99.90;;;16.37;70.42;100380.50;3489152;40;102842;-39
2021/07/31 06:38:07;;;;;;;;;;;17.50;99.90;;;16.45;69.38;100382.78;3489733;39;104619;-39
2021/07/31 06:40:35;;;;;;;;;;;17.50;99.90;;;16.51;69.29;100387.22;3489932;40;102423;-39
2021/07/31 06:43:02;;;;;;;;;;;17.60;99.90;;;16.50;69.88;100380.06;3489696;40;103162;-39
2021/07/31 06:45:30;;;;;;;;;;;17.60;99.90;;;16.51;70.08;100402.91;3489804;40;102813;-39
2021/07/31 06:47:58;;;;;;;;;;;17.60;99.90;;;16.53;69.51;100392.44;3489735;39;104061;-39
2021/07/31 06:50:25;;;;;;;;;;;17.60;99.90;;;16.68;69.32;100400.84;3489483;40;102444;-39
2021/07/31 06:52:53;;;;;;;;;;;17.70;99.90;;;16.79;68.69;100393.50;3489396;39;103095;-39
2021/07/31 06:55:20;;;;;;;;;;;17.80;99.90;;;16.92;68.45;100394.09;3489709;40;102752;-41
2021/07/31 06:57:47;;;;;;;;;;;17.90;99.90;;;17.14;66.92;100398.69;3489696;40;103037;-40
2021/07/31 07:00:15;;;;;;;;;;;18.10;99.90;;;17.23;66.75;100408.94;3490115;40;102216;-39
2021/07/31 07:02:42;;;;;;;;;;;18.20;99.90;;;17.27;67.03;100412.00;3489844;39;103033;-39
2021/07/31 07:05:10;;;;;;;;;;;18.30;99.90;;;17.17;66.67;100414.69;3489621;39;102649;-39
2021/07/31 07:07:37;;;;;;;;;;;18.30;99.90;;;17.11;66.97;100414.66;3489316;39;104143;-39
2021/07/31 07:10:06;;;;;;;;;;;18.30;99.90;;;17.03;67.21;100404.16;3489878;40;102287;-39
2021/07/31 07:12:33;;;;;;;;;;;18.20;99.90;;;17.03;68.23;100417.94;3489437;39;104010;-39
2021/07/31 07:15:01;;;;;;;;;;;18.20;99.90;;;17.03;68.54;100415.16;3489500;39;102304;-39
2021/07/31 07:17:28;;;;;;;;;;;18.10;99.90;;;17.01;67.49;100422.88;3489600;40;103972;-39
2021/07/31 07:19:55;;;;;;;;;;;18.10;99.90;;;17.13;67.19;100430.09;3489732;39;102166;-39
2021/07/31 07:22:22;;;;;;;;;;;18.10;99.90;;;17.18;67.10;100421.84;3489779;39;103104;-39
2021/07/31 07:24:50;;;;;;;;;;;18.20;99.90;;;17.35;68.11;100433.53;3489139;40;102364;-39
2021/07/31 07:27:17;;;;;;;;;;;18.30;99.90;;;17.43;67.17;100429.44;3489626;40;103135;-39
2021/07/31 07:29:44;;;;;;;;;;;18.40;99.90;;;17.52;67.05;100425.06;3489528;40;102397;-39
2021/07/31 07:32:11;;;;;;;;;;;18.50;99.90;;;17.47;66.91;100418.69;3489343;40;103058;-40
2021/07/31 07:34:39;;;;;;;;;;;18.50;99.90;;;17.34;67.23;100426.38;3489387;39;102781;-39
2021/07/31 07:37:06;;;;;;;;;;;18.50;99.90;;;17.34;67.65;100422.75;3489215;39;104068;-39
2021/07/31 07:39:33;;;;;;;;;;;18.50;99.90;;;17.31;65.78;100432.41;3489455;40;102767;-39
2021/07/31 07:42:04;;;;;;;;;;;18.40;99.90;;;17.38;68.15;100426.66;3488933;39;103150;-39
2021/07/31 07:44:34;;;;;;;;;;;18.40;99.90;;;17.59;67.00;100430.34;3489031;39;102564;-39
2021/07/31 07:47:02;;;;;;;;;;;18.60;99.90;;;17.91;66.54;100429.34;3489669;39;103072;-39
2021/07/31 07:49:29;;;;;;;;;;;18.80;99.90;;;18.13;64.72;100422.81;3489456;40;102203;-39
2021/07/31 07:51:56;;;;;;;;;;;19.00;99.90;;;18.44;66.72;100414.56;3489073;40;103128;-40
2021/07/31 07:54:24;;;;;;;;;;;19.20;99.90;;;18.53;63.43;100414.84;3489414;40;102510;-39
2021/07/31 07:56:51;;;;;;;;;;;19.40;99.90;;;18.74;64.38;100410.13;3489405;39;103279;-39
2021/07/31 07:59:18;;;;;;;;;;;19.60;99.90;;;18.87;62.64;100419.78;3489022;39;102808;-39
2021/07/31 08:01:46;;;;;;;;;;;19.70;99.90;;;18.87;62.46;100422.56;3489641;39;103979;-39
2021/07/31 08:04:14;;;;;;;;;;;19.80;99.90;;;18.94;63.18;100414.78;3489200;40;102167;-39
2021/07/31 08:06:42;;;;;;;;;;;19.90;99.90;;;19.12;62.32;100418.13;3667257;23;103209;-40
2021/07/31 08:09:09;;;;;;;;;;;20.00;99.90;;;19.33;63.32;100429.13;3550492;39;102982;-41
2021/07/31 08:11:37;;;;;;;;;;;20.10;99.90;;;19.47;61.57;100432.13;3550657;39;103203;-43
2021/07/31 08:14:04;;;;;;;;;;;20.30;99.90;;;19.47;60.46;100426.59;3550499;39;102864;-41
2021/07/31 08:16:31;;;;;;;;;;;20.40;99.90;;;19.60;61.35;100422.41;3550442;39;104223;-42
2021/07/31 08:18:59;;;;;;;;;;;20.50;99.90;;;19.46;59.13;100430.47;3550426;39;102148;-41
2021/07/31 08:21:26;;;;;;;;;;;20.50;99.90;;;19.34;58.96;100431.59;3550249;39;102998;-41
2021/07/31 08:23:53;;;;;;;;;;;20.40;99.90;;;19.21;59.43;100434.97;3550193;39;103727;-40
2021/07/31 08:26:21;;;;;;;;;;;20.30;99.90;;;19.19;60.79;100434.41;3550544;39;102327;-41
2021/07/31 08:28:50;;;;;;;;;;;20.20;99.90;;;19.36;61.15;100431.34;3550671;39;102323;-42
2021/07/31 08:31:18;;;;;;;;;;;20.30;99.90;;;19.39;60.89;100433.53;3550928;39;102136;-41
2021/07/31 08:33:45;;;;;;;;;;;20.40;99.90;;;19.31;59.32;100432.16;3550219;39;102363;-41
2021/07/31 08:36:13;;;;;;;;;;;20.40;99.90;;;19.49;61.36;100436.25;3550208;39;103011;-41
2021/07/31 08:38:40;;;;;;;;;;;20.40;99.90;;;19.66;59.25;100432.31;3550202;39;102260;-44
2021/07/31 08:41:07;;;;;;;;;;;20.50;99.90;;;19.87;61.53;100424.75;3550539;39;103226;-41
2021/07/31 08:43:35;;;;;;;;;;;20.70;99.90;;;19.98;59.31;100434.69;3550416;39;102400;-41
2021/07/31 08:46:08;;;;;;;;;;;20.80;99.90;;;20.07;59.01;100436.84;3550024;39;102175;-40
2021/07/31 08:48:37;;;;;;;;;;;20.90;99.90;;;19.98;59.81;100434.69;3550361;39;102472;-41
2021/07/31 08:51:05;;;;;;;;;;;20.90;99.90;;;19.88;59.21;100443.00;3550022;39;102228;-41
2021/07/31 08:53:32;;;;;;;;;;;20.90;99.90;;;19.87;60.37;100444.13;3549710;39;102270;-41
2021/07/31 08:56:01;;;;;;;;;;;20.90;99.90;;;19.75;56.77;100444.44;3550150;39;103163;-39
2021/07/31 08:58:28;;;;;;;;;;;20.80;99.90;;;19.68;59.51;100442.00;3550232;39;102328;-41
2021/07/31 09:00:57;;;;;;;;;;;20.70;99.90;;;19.54;60.05;100440.94;3550193;39;102627;-41
2021/07/31 09:03:25;;;;;;;;;;;20.60;99.90;;;19.77;60.16;100441.41;3549917;39;102580;-41
2021/07/31 09:05:53;;;;;;;;;;;20.70;99.90;;;19.92;58.99;100449.69;3550091;39;102281;-41
2021/07/31 09:08:20;;;;;;;;;;;20.80;99.90;;;19.99;60.50;100452.13;3550141;39;102382;-41
2021/07/31 09:10:47;;;;;;;;;;;20.80;99.90;;;19.71;57.50;100437.81;3550026;39;102617;-41
2021/07/31 09:13:17;;;;;;;;;;;20.80;99.90;;;19.90;60.88;100448.25;3550255;39;102329;-40
2021/07/31 09:15:52;;;;;;;;;;;20.80;99.90;;;19.86;59.22;100445.22;3549716;39;103384;-41
2021/07/31 09:18:26;;;;;;;;;;;20.80;99.90;;;20.01;61.14;100454.59;3550356;39;102380;-42
2021/07/31 09:20:58;;;;;;;;;;;20.90;99.90;;;20.14;59.36;100448.44;3550013;39;102273;-40
2021/07/31 09:23:51;;;;;;;;;;;21.00;99.90;;;20.51;58.74;100451.78;3549783;39;102439;-41
2021/07/31 09:26:30;;;;;;;;;;;21.20;99.90;;;20.61;56.06;100461.97;3550115;39;103259;-41
2021/07/31 09:29:04;;;;;;;;;;;21.40;99.90;;;20.82;56.86;100451.56;3549980;39;102279;-40
2021/07/31 09:31:32;;;;;;;;;;;21.60;99.90;;;20.69;56.16;100453.03;3550147;39;103263;-41
2021/07/31 09:34:02;;;;;;;;;;;21.60;99.90;;;20.91;56.14;100449.81;3550261;39;102404;-41
2021/07/31 09:36:42;;;;;;;;;;;21.70;99.90;;;21.04;55.78;100448.31;3550119;39;102155;-41
2021/07/31 09:39:11;;;;;;;;;;;21.90;99.90;;;21.15;56.81;100449.03;3549933;39;102467;-41
2021/07/31 09:41:42;;;;;;;;;;;22.00;99.90;;;20.96;57.28;100455.31;3550124;39;103280;-41
2021/07/31 09:44:17;;;;;;;;;;;22.00;99.90;;;20.82;57.13;100449.63;3550013;39;102986;-41
2021/07/31 09:46:50;;;;;;;;;;;21.90;99.90;;;20.83;57.77;100454.03;3549893;39;102320;-41
2021/07/31 09:49:20;;;;;;;;;;;21.80;99.90;;;20.72;55.51;100454.41;3549691;39;102420;-42
2021/07/31 09:51:49;;;;;;;;;;;21.70;99.90;;;20.67;56.14;100463.56;3549759;39;102260;-41
2021/07/31 09:54:20;;;;;;;;;;;21.70;99.90;;;20.56;56.93;100471.16;3549846;39;103012;-41
2021/07/31 09:56:51;;;;;;;;;;;21.60;99.90;;;20.61;57.36;100467.50;3549791;39;102268;-43
2021/07/31 09:59:21;;;;;;;;;;;21.60;99.90;;;20.93;58.16;100468.94;3549867;39;102212;-41
2021/07/31 10:01:49;;;;;;;;;;;21.70;99.90;;;21.37;57.24;100467.13;3549865;39;103404;-42
2021/07/31 10:04:17;;;;;;;;;;;22.00;99.90;;;21.31;53.20;100474.66;3549719;39;102441;-41
2021/07/31 10:06:44;;;;;;;;;;;22.10;99.90;;;21.22;53.53;100470.91;3550803;39;104276;-41
2021/07/31 10:09:12;;;;;;;;;;;22.20;99.90;;;21.27;53.75;100463.31;3551027;39;102077;-41
2021/07/31 10:11:40;;;;;;;;;;;22.20;99.90;;;21.22;54.26;100468.13;3551013;39;102390;-41
2021/07/31 10:14:09;;;;;;;;;;;22.10;99.90;;;20.80;55.38;100476.81;3551428;39;103885;-41
2021/07/31 10:16:43;;;;;;;;;;;21.90;99.90;;;20.47;54.54;100481.19;3550980;39;103250;-41
2021/07/31 10:19:11;;;;;;;;;;;21.70;99.90;;;20.16;54.83;100479.47;3551251;39;102151;-41
2021/07/31 10:21:42;;;;;;;;;;;21.40;99.90;;;20.05;58.87;100481.44;3557916;39;102258;-43
2021/07/31 10:24:09;;;;;;;;;;;21.20;99.90;;;19.83;56.64;100479.84;3550591;39;102241;-41
2021/07/31 10:26:37;;;;;;;;;;;21.00;99.90;;;19.83;58.89;100484.53;3551218;39;102377;-39
2021/07/31 10:29:25;;;;;;;;;;;20.90;99.90;;;20.16;56.72;100482.22;3551105;39;102313;-44
2021/07/31 10:31:55;;;;;;;;;;;21.10;99.90;;;20.28;55.12;100487.38;3550965;39;103275;-41
2021/07/31 10:34:56;;;;;;;;;;;21.20;99.90;;;20.58;55.38;100484.72;3550869;39;102357;-38
2021/07/31 10:37:41;;;;;;;;;;;21.40;99.90;;;20.58;54.81;100491.09;3551187;39;103194;-38
2021/07/31 10:40:13;;;;;;;;;;;21.50;99.90;;;20.46;54.56;100491.44;3550803;39;102384;-40
2021/07/31 10:42:52;;;;;;;;;;;21.50;99.90;;;20.48;54.77;100494.75;3550882;39;102281;-40
2021/07/31 10:45:29;;;;;;;;;;;21.40;99.90;;;20.55;53.69;100489.72;3550924;39;102244;-41
2021/07/31 10:48:17;;;;;;;;;;;21.50;99.90;;;20.94;55.92;100489.97;3551006;39;103228;-40
2021/07/31 10:50:44;;;;;;;;;;;21.70;99.90;;;21.36;53.29;100488.47;3547378;39;102406;-44
2021/07/31 10:53:14;;;;;;;;;;;22.00;99.90;;;21.69;51.86;100479.56;3551047;39;102241;-41
2021/07/31 10:55:44;;;;;;;;;;;22.40;99.90;;;21.93;51.74;100478.72;3551108;39;102179;-38
2021/07/31 10:58:19;;;;;;;;;;;22.60;99.90;;;21.49;50.21;100477.81;3551124;39;104225;-39
2021/07/31 11:00:52;;;;;;;;;;;22.60;99.90;;;21.44;52.94;100475.91;3550813;39;102402;-41
2021/07/31 11:03:30;;;;;;;;;;;22.50;99.90;;;21.71;49.58;100482.84;3550524;39;102369;-41
2021/07/31 11:05:58;;;;;;;;;;;22.60;99.90;;;21.60;50.44;100481.28;3550914;39;102477;-41
2021/07/31 11:08:26;;;;;;;;;;;22.50;99.90;;;21.76;52.02;100477.25;3550734;39;103276;-42
2021/07/31 11:10:56;;;;;;;;;;;22.60;99.90;;;21.99;50.06;100475.53;3550937;39;102080;-42
2021/07/31 11:13:23;;;;;;;;;;;22.80;99.90;;;21.79;50.25;100478.59;3551393;39;102305;-41